Decoded Metar for LEZG (ZARAGOZA in SPAIN) (IATA:ZAZ) | Meteo·Mobile Aviation Weather
aviador You're here:

LEZG Decoded Metar

ZARAGOZA in SPAIN
Report Time2019-07-24 04:00:00
UTC Time2019-07-24 04:15:42
Flight Rules vfr VFR
WindCalm
Visibility9999 m
Phenomena:N/A
Clouds:N/A
Expected CloudBase > 5,200 ft AGL from Temp-Dew spread
CeilingNone
Temp25°C (ISA +12)
Dew Point12°C (44% RH)
QNH1016 hPa
Density Alt2,287 ft
Elevation846 ft
Report Wrong Elevation
Raw Report
LEZG 240400Z 00000KT CAVOK 25/12 Q1016=

Extra information for LEZG:More info

Metar Taf Metar & Taf Last 4 Metars F.Rules Stats Wind Profile Meteogram Temp Stats Airport Information Weather charts Add Link Nearby VenuesMetar ALERT Operation Metar Decoded Social comments